sensor_id;sensor_type;location;lat;lon;timestamp;temperature;humidity
9497;DHT22;4786;51.270;4.456;2022-12-18T00:03:52;-2.80;99.90
9497;DHT22;4786;51.270;4.456;2022-12-18T00:06:19;-2.70;99.90
9497;DHT22;4786;51.270;4.456;2022-12-18T00:08:48;-2.80;99.90
9497;DHT22;4786;51.270;4.456;2022-12-18T00:11:19;-2.70;99.90
9497;DHT22;4786;51.270;4.456;2022-12-18T00:13:45;-2.50;99.90
9497;DHT22;4786;51.270;4.456;2022-12-18T00:16:17;-2.70;99.90
9497;DHT22;4786;51.270;4.456;2022-12-18T00:18:45;-2.80;99.90
9497;DHT22;4786;51.270;4.456;2022-12-18T00:21:12;-2.90;99.90
9497;DHT22;4786;51.270;4.456;2022-12-18T00:23:40;-2.60;99.90
9497;DHT22;4786;51.270;4.456;2022-12-18T00:26:12;-2.90;99.90
9497;DHT22;4786;51.270;4.456;2022-12-18T00:28:40;-3.00;99.90
9497;DHT22;4786;51.270;4.456;2022-12-18T00:31:09;-2.90;99.90
9497;DHT22;4786;51.270;4.456;2022-12-18T00:33:37;-2.90;99.90
9497;DHT22;4786;51.270;4.456;2022-12-18T00:36:09;-3.00;99.90
9497;DHT22;4786;51.270;4.456;2022-12-18T00:38:36;-3.10;99.90
9497;DHT22;4786;51.270;4.456;2022-12-18T00:41:02;-3.10;99.90
9497;DHT22;4786;51.270;4.456;2022-12-18T00:43:28;-3.10;99.90
9497;DHT22;4786;51.270;4.456;2022-12-18T00:45:54;-3.20;99.90
9497;DHT22;4786;51.270;4.456;2022-12-18T00:48:20;-3.20;99.90
9497;DHT22;4786;51.270;4.456;2022-12-18T00:50:48;-3.20;99.90
9497;DHT22;4786;51.270;4.456;2022-12-18T00:53:13;-3.20;99.90
9497;DHT22;4786;51.270;4.456;2022-12-18T00:55:40;-3.30;99.90
9497;DHT22;4786;51.270;4.456;2022-12-18T00:58:07;-3.30;99.90
9497;DHT22;4786;51.270;4.456;2022-12-18T01:00:32;-3.40;99.90
9497;DHT22;4786;51.270;4.456;2022-12-18T01:02:59;-3.40;99.90
9497;DHT22;4786;51.270;4.456;2022-12-18T01:05:25;-3.30;99.90
9497;DHT22;4786;51.270;4.456;2022-12-18T01:07:51;-3.30;99.90
9497;DHT22;4786;51.270;4.456;2022-12-18T01:10:17;-3.40;99.90
9497;DHT22;4786;51.270;4.456;2022-12-18T01:12:43;-3.40;99.90
9497;DHT22;4786;51.270;4.456;2022-12-18T01:15:10;-3.50;99.90
9497;DHT22;4786;51.270;4.456;2022-12-18T01:17:37;-3.50;99.90
9497;DHT22;4786;51.270;4.456;2022-12-18T01:20:04;-3.40;99.90
9497;DHT22;4786;51.270;4.456;2022-12-18T01:22:31;-3.40;99.90
9497;DHT22;4786;51.270;4.456;2022-12-18T01:24:56;-3.40;99.90
9497;DHT22;4786;51.270;4.456;2022-12-18T01:27:22;-3.30;99.90
9497;DHT22;4786;51.270;4.456;2022-12-18T01:29:49;-3.40;99.90
9497;DHT22;4786;51.270;4.456;2022-12-18T01:32:15;-3.40;99.90
9497;DHT22;4786;51.270;4.456;2022-12-18T01:34:40;-3.50;99.90
9497;DHT22;4786;51.270;4.456;2022-12-18T01:37:07;-3.50;99.90
9497;DHT22;4786;51.270;4.456;2022-12-18T01:39:33;-3.30;99.90
9497;DHT22;4786;51.270;4.456;2022-12-18T01:42:12;-3.60;99.90
9497;DHT22;4786;51.270;4.456;2022-12-18T01:47:48;-3.70;99.90
9497;DHT22;4786;51.270;4.456;2022-12-18T01:52:56;-3.70;99.90
9497;DHT22;4786;51.270;4.456;2022-12-18T01:55:25;-3.70;99.90
9497;DHT22;4786;51.270;4.456;2022-12-18T01:57:53;-3.60;99.90
9497;DHT22;4786;51.270;4.456;2022-12-18T02:00:22;-3.60;99.90
9497;DHT22;4786;51.270;4.456;2022-12-18T02:02:48;-3.60;99.90
9497;DHT22;4786;51.270;4.456;2022-12-18T02:05:19;-3.50;99.90
9497;DHT22;4786;51.270;4.456;2022-12-18T02:10:33;-3.30;99.90
9497;DHT22;4786;51.270;4.456;2022-12-18T02:14:08;-3.30;99.90
9497;DHT22;4786;51.270;4.456;2022-12-18T02:16:06;-3.40;99.90
9497;DHT22;4786;51.270;4.456;2022-12-18T02:18:45;-3.40;99.90
9497;DHT22;4786;51.270;4.456;2022-12-18T02:23:52;-3.40;99.90
9497;DHT22;4786;51.270;4.456;2022-12-18T02:28:53;-3.40;99.90
9497;DHT22;4786;51.270;4.456;2022-12-18T02:31:28;-3.50;99.90
9497;DHT22;4786;51.270;4.456;2022-12-18T02:33:56;-3.60;99.90
9497;DHT22;4786;51.270;4.456;2022-12-18T02:36:27;-3.60;99.90
9497;DHT22;4786;51.270;4.456;2022-12-18T02:38:54;-3.60;99.90
9497;DHT22;4786;51.270;4.456;2022-12-18T02:41:22;-3.60;99.90
9497;DHT22;4786;51.270;4.456;2022-12-18T02:43:52;-3.70;99.90
9497;DHT22;4786;51.270;4.456;2022-12-18T02:46:27;-3.60;99.90
9497;DHT22;4786;51.270;4.456;2022-12-18T02:49:22;-3.60;99.90
9497;DHT22;4786;51.270;4.456;2022-12-18T02:52:19;-3.70;99.90
9497;DHT22;4786;51.270;4.456;2022-12-18T02:57:48;-3.80;99.90
9497;DHT22;4786;51.270;4.456;2022-12-18T03:00:28;-3.90;99.90
9497;DHT22;4786;51.270;4.456;2022-12-18T03:04:04;-3.80;99.90
9497;DHT22;4786;51.270;4.456;2022-12-18T03:06:12;-3.70;99.90
9497;DHT22;4786;51.270;4.456;2022-12-18T03:08:43;-3.70;99.90
9497;DHT22;4786;51.270;4.456;2022-12-18T03:11:11;-3.70;99.90
9497;DHT22;4786;51.270;4.456;2022-12-18T03:13:43;-3.60;99.90
9497;DHT22;4786;51.270;4.456;2022-12-18T03:16:12;-3.70;99.90
9497;DHT22;4786;51.270;4.456;2022-12-18T03:18:52;-3.80;99.90
9497;DHT22;4786;51.270;4.456;2022-12-18T03:21:23;-3.70;99.90
9497;DHT22;4786;51.270;4.456;2022-12-18T03:23:51;-3.90;99.90
9497;DHT22;4786;51.270;4.456;2022-12-18T03:26:23;-3.80;99.90
9497;DHT22;4786;51.270;4.456;2022-12-18T03:28:53;-3.80;99.90
9497;DHT22;4786;51.270;4.456;2022-12-18T03:31:23;-3.90;99.90
9497;DHT22;4786;51.270;4.456;2022-12-18T03:33:54;-3.90;99.90
9497;DHT22;4786;51.270;4.456;2022-12-18T03:36:21;-3.70;99.90
9497;DHT22;4786;51.270;4.456;2022-12-18T03:38:48;-3.70;99.90
9497;DHT22;4786;51.270;4.456;2022-12-18T03:43:48;-3.80;99.90
9497;DHT22;4786;51.270;4.456;2022-12-18T03:46:27;-3.80;99.90
9497;DHT22;4786;51.270;4.456;2022-12-18T03:52:14;-3.90;99.90
9497;DHT22;4786;51.270;4.456;2022-12-18T03:54:44;-3.90;99.90
9497;DHT22;4786;51.270;4.456;2022-12-18T03:57:23;-3.90;99.90
9497;DHT22;4786;51.270;4.456;2022-12-18T03:59:52;-3.90;99.90
9497;DHT22;4786;51.270;4.456;2022-12-18T04:02:21;-3.80;99.90
9497;DHT22;4786;51.270;4.456;2022-12-18T04:04:55;-3.80;99.90
9497;DHT22;4786;51.270;4.456;2022-12-18T04:07:23;-4.00;99.90
9497;DHT22;4786;51.270;4.456;2022-12-18T04:09:53;-3.90;99.90
9497;DHT22;4786;51.270;4.456;2022-12-18T04:12:20;-3.90;99.90
9497;DHT22;4786;51.270;4.456;2022-12-18T04:14:46;-3.90;99.90
9497;DHT22;4786;51.270;4.456;2022-12-18T04:17:12;-4.00;99.90
9497;DHT22;4786;51.270;4.456;2022-12-18T04:19:37;-4.00;99.90
9497;DHT22;4786;51.270;4.456;2022-12-18T04:22:03;-4.10;99.90
9497;DHT22;4786;51.270;4.456;2022-12-18T04:24:30;-4.10;99.90
9497;DHT22;4786;51.270;4.456;2022-12-18T04:26:56;-4.00;99.90
9497;DHT22;4786;51.270;4.456;2022-12-18T04:29:22;-4.10;99.90
9497;DHT22;4786;51.270;4.456;2022-12-18T04:31:48;-4.10;99.90
9497;DHT22;4786;51.270;4.456;2022-12-18T04:34:14;-4.10;99.90
9497;DHT22;4786;51.270;4.456;2022-12-18T04:36:40;-4.10;99.90
9497;DHT22;4786;51.270;4.456;2022-12-18T04:39:05;-4.10;99.90
9497;DHT22;4786;51.270;4.456;2022-12-18T04:41:31;-4.20;99.90
9497;DHT22;4786;51.270;4.456;2022-12-18T04:43:57;-4.30;99.90
9497;DHT22;4786;51.270;4.456;2022-12-18T04:46:23;-4.20;99.90
9497;DHT22;4786;51.270;4.456;2022-12-18T04:48:49;-4.30;99.90
9497;DHT22;4786;51.270;4.456;2022-12-18T04:51:15;-4.30;99.90
9497;DHT22;4786;51.270;4.456;2022-12-18T04:53:41;-4.20;99.90
9497;DHT22;4786;51.270;4.456;2022-12-18T04:56:09;-4.20;99.90
9497;DHT22;4786;51.270;4.456;2022-12-18T04:58:36;-4.20;99.90
9497;DHT22;4786;51.270;4.456;2022-12-18T05:01:02;-4.20;99.90
9497;DHT22;4786;51.270;4.456;2022-12-18T05:03:28;-4.30;99.90
9497;DHT22;4786;51.270;4.456;2022-12-18T05:05:54;-4.20;99.90
9497;DHT22;4786;51.270;4.456;2022-12-18T05:08:20;-4.10;99.90
9497;DHT22;4786;51.270;4.456;2022-12-18T05:10:47;-4.20;99.90
9497;DHT22;4786;51.270;4.456;2022-12-18T05:13:12;-4.20;99.90
9497;DHT22;4786;51.270;4.456;2022-12-18T05:15:38;-4.30;99.90
9497;DHT22;4786;51.270;4.456;2022-12-18T05:18:04;-4.30;99.90
9497;DHT22;4786;51.270;4.456;2022-12-18T05:20:30;-4.20;99.90
9497;DHT22;4786;51.270;4.456;2022-12-18T05:22:57;-4.20;99.90
9497;DHT22;4786;51.270;4.456;2022-12-18T05:25:24;-4.30;99.90
9497;DHT22;4786;51.270;4.456;2022-12-18T05:27:49;-4.30;99.90
9497;DHT22;4786;51.270;4.456;2022-12-18T05:30:15;-4.30;99.90
9497;DHT22;4786;51.270;4.456;2022-12-18T05:32:41;-4.30;99.90
9497;DHT22;4786;51.270;4.456;2022-12-18T05:35:09;-4.50;99.90
9497;DHT22;4786;51.270;4.456;2022-12-18T05:37:35;-4.40;99.90
9497;DHT22;4786;51.270;4.456;2022-12-18T05:40:02;-4.40;99.90
9497;DHT22;4786;51.270;4.456;2022-12-18T05:42:28;-4.40;99.90
9497;DHT22;4786;51.270;4.456;2022-12-18T05:44:54;-4.60;99.90
9497;DHT22;4786;51.270;4.456;2022-12-18T05:47:20;-4.60;99.90
9497;DHT22;4786;51.270;4.456;2022-12-18T05:49:46;-4.60;99.90
9497;DHT22;4786;51.270;4.456;2022-12-18T05:52:12;-4.50;99.90
9497;DHT22;4786;51.270;4.456;2022-12-18T05:54:38;-4.50;99.90
9497;DHT22;4786;51.270;4.456;2022-12-18T05:57:04;-4.50;99.90
9497;DHT22;4786;51.270;4.456;2022-12-18T05:59:30;-4.50;99.90
9497;DHT22;4786;51.270;4.456;2022-12-18T06:01:55;-4.60;99.90
9497;DHT22;4786;51.270;4.456;2022-12-18T06:04:22;-4.60;99.90
9497;DHT22;4786;51.270;4.456;2022-12-18T06:06:47;-4.50;99.90
9497;DHT22;4786;51.270;4.456;2022-12-18T06:09:13;-4.50;99.90
9497;DHT22;4786;51.270;4.456;2022-12-18T06:11:39;-4.40;99.90
9497;DHT22;4786;51.270;4.456;2022-12-18T06:14:06;-4.20;99.90
9497;DHT22;4786;51.270;4.456;2022-12-18T06:16:32;-4.20;99.90
9497;DHT22;4786;51.270;4.456;2022-12-18T06:18:59;-4.10;99.90
9497;DHT22;4786;51.270;4.456;2022-12-18T06:21:26;-4.00;99.90
9497;DHT22;4786;51.270;4.456;2022-12-18T06:23:53;-4.00;99.90
9497;DHT22;4786;51.270;4.456;2022-12-18T06:26:19;-4.10;99.90
9497;DHT22;4786;51.270;4.456;2022-12-18T06:28:45;-4.20;99.90
9497;DHT22;4786;51.270;4.456;2022-12-18T06:31:12;-4.20;99.90
9497;DHT22;4786;51.270;4.456;2022-12-18T06:33:38;-4.30;99.90
9497;DHT22;4786;51.270;4.456;2022-12-18T06:36:09;-4.40;99.90
9497;DHT22;4786;51.270;4.456;2022-12-18T06:38:37;-4.50;99.90
9497;DHT22;4786;51.270;4.456;2022-12-18T06:41:13;-4.40;99.90
9497;DHT22;4786;51.270;4.456;2022-12-18T06:43:39;-4.30;99.90
9497;DHT22;4786;51.270;4.456;2022-12-18T06:46:05;-4.30;99.90
9497;DHT22;4786;51.270;4.456;2022-12-18T06:48:32;-4.30;99.90
9497;DHT22;4786;51.270;4.456;2022-12-18T06:50:59;-4.30;99.90
9497;DHT22;4786;51.270;4.456;2022-12-18T06:53:25;-4.30;99.90
9497;DHT22;4786;51.270;4.456;2022-12-18T06:55:51;-4.30;99.90
9497;DHT22;4786;51.270;4.456;2022-12-18T06:58:17;-4.50;99.90
9497;DHT22;4786;51.270;4.456;2022-12-18T07:00:43;-4.50;99.90
9497;DHT22;4786;51.270;4.456;2022-12-18T07:03:09;-4.40;99.90
9497;DHT22;4786;51.270;4.456;2022-12-18T07:05:40;-4.40;99.90
9497;DHT22;4786;51.270;4.456;2022-12-18T07:08:06;-4.50;99.90
9497;DHT22;4786;51.270;4.456;2022-12-18T07:10:31;-4.50;99.90
9497;DHT22;4786;51.270;4.456;2022-12-18T07:12:57;-4.60;99.90
9497;DHT22;4786;51.270;4.456;2022-12-18T07:15:23;-4.70;99.90
9497;DHT22;4786;51.270;4.456;2022-12-18T07:17:49;-4.80;99.90
9497;DHT22;4786;51.270;4.456;2022-12-18T07:20:15;-4.70;99.90
9497;DHT22;4786;51.270;4.456;2022-12-18T07:22:41;-4.70;99.90
9497;DHT22;4786;51.270;4.456;2022-12-18T07:25:07;-4.70;99.90
9497;DHT22;4786;51.270;4.456;2022-12-18T07:27:33;-4.60;99.90
9497;DHT22;4786;51.270;4.456;2022-12-18T07:30:00;-4.50;99.90
9497;DHT22;4786;51.270;4.456;2022-12-18T07:32:25;-4.60;99.90
9497;DHT22;4786;51.270;4.456;2022-12-18T07:34:51;-4.50;99.90
9497;DHT22;4786;51.270;4.456;2022-12-18T07:37:19;-4.60;99.90
9497;DHT22;4786;51.270;4.456;2022-12-18T07:39:45;-4.60;99.90
9497;DHT22;4786;51.270;4.456;2022-12-18T07:42:11;-4.60;99.90
9497;DHT22;4786;51.270;4.456;2022-12-18T07:44:55;-4.50;99.90
9497;DHT22;4786;51.270;4.456;2022-12-18T07:47:20;-4.60;99.90
9497;DHT22;4786;51.270;4.456;2022-12-18T07:49:46;-4.70;99.90
9497;DHT22;4786;51.270;4.456;2022-12-18T07:52:12;-4.80;99.90
9497;DHT22;4786;51.270;4.456;2022-12-18T07:54:38;-4.80;99.90
9497;DHT22;4786;51.270;4.456;2022-12-18T07:57:06;-4.70;99.90
9497;DHT22;4786;51.270;4.456;2022-12-18T07:59:31;-4.70;99.90
9497;DHT22;4786;51.270;4.456;2022-12-18T08:01:57;-4.60;99.90
9497;DHT22;4786;51.270;4.456;2022-12-18T08:04:24;-4.50;99.90
9497;DHT22;4786;51.270;4.456;2022-12-18T08:06:50;-4.50;99.90
9497;DHT22;4786;51.270;4.456;2022-12-18T08:09:16;-4.40;99.90
9497;DHT22;4786;51.270;4.456;2022-12-18T08:11:42;-4.20;99.90
9497;DHT22;4786;51.270;4.456;2022-12-18T08:14:09;-4.30;99.90
9497;DHT22;4786;51.270;4.456;2022-12-18T08:16:35;-3.90;99.90
9497;DHT22;4786;51.270;4.456;2022-12-18T08:19:02;-4.30;99.90
9497;DHT22;4786;51.270;4.456;2022-12-18T08:21:30;-4.30;99.90
9497;DHT22;4786;51.270;4.456;2022-12-18T08:23:58;-4.30;99.90
9497;DHT22;4786;51.270;4.456;2022-12-18T08:26:25;-4.20;99.90
9497;DHT22;4786;51.270;4.456;2022-12-18T08:28:52;-4.10;99.90
9497;DHT22;4786;51.270;4.456;2022-12-18T08:31:20;-4.00;99.90
9497;DHT22;4786;51.270;4.456;2022-12-18T08:33:48;-4.00;99.90
9497;DHT22;4786;51.270;4.456;2022-12-18T08:36:14;-4.00;99.90
9497;DHT22;4786;51.270;4.456;2022-12-18T08:38:40;-4.00;99.90
9497;DHT22;4786;51.270;4.456;2022-12-18T08:41:08;-3.90;99.90
9497;DHT22;4786;51.270;4.456;2022-12-18T08:43:34;-3.70;99.90
9497;DHT22;4786;51.270;4.456;2022-12-18T08:46:19;-3.70;99.90
9497;DHT22;4786;51.270;4.456;2022-12-18T08:48:45;-3.50;99.90
9497;DHT22;4786;51.270;4.456;2022-12-18T08:51:11;-3.50;99.90
9497;DHT22;4786;51.270;4.456;2022-12-18T08:53:39;-3.50;99.90
9497;DHT22;4786;51.270;4.456;2022-12-18T08:56:05;-3.40;99.90
9497;DHT22;4786;51.270;4.456;2022-12-18T08:58:35;-3.40;99.90
9497;DHT22;4786;51.270;4.456;2022-12-18T09:01:07;-3.40;99.90
9497;DHT22;4786;51.270;4.456;2022-12-18T09:03:34;-3.40;99.90
9497;DHT22;4786;51.270;4.456;2022-12-18T09:06:00;-3.40;99.90
9497;DHT22;4786;51.270;4.456;2022-12-18T09:08:27;-3.40;99.90
9497;DHT22;4786;51.270;4.456;2022-12-18T09:10:53;-3.30;99.90
9497;DHT22;4786;51.270;4.456;2022-12-18T09:13:19;-3.20;99.90
9497;DHT22;4786;51.270;4.456;2022-12-18T09:15:52;-3.00;99.90
9497;DHT22;4786;51.270;4.456;2022-12-18T09:18:20;-3.00;99.90
9497;DHT22;4786;51.270;4.456;2022-12-18T09:20:46;-3.00;99.90
9497;DHT22;4786;51.270;4.456;2022-12-18T09:23:12;-3.00;99.90
9497;DHT22;4786;51.270;4.456;2022-12-18T09:25:39;-3.10;99.90
9497;DHT22;4786;51.270;4.456;2022-12-18T09:28:09;-3.00;99.90
9497;DHT22;4786;51.270;4.456;2022-12-18T09:30:38;-2.90;99.90
9497;DHT22;4786;51.270;4.456;2022-12-18T09:33:04;-2.80;99.90
9497;DHT22;4786;51.270;4.456;2022-12-18T09:35:29;-2.70;99.90
9497;DHT22;4786;51.270;4.456;2022-12-18T09:37:55;-2.60;99.90
9497;DHT22;4786;51.270;4.456;2022-12-18T09:40:25;-2.50;99.90
9497;DHT22;4786;51.270;4.456;2022-12-18T09:43:00;-2.60;99.90
9497;DHT22;4786;51.270;4.456;2022-12-18T09:45:26;-2.60;99.90
9497;DHT22;4786;51.270;4.456;2022-12-18T09:48:01;-2.50;99.90
9497;DHT22;4786;51.270;4.456;2022-12-18T09:50:34;-2.50;99.90
9497;DHT22;4786;51.270;4.456;2022-12-18T09:53:06;-2.50;99.90
9497;DHT22;4786;51.270;4.456;2022-12-18T09:55:44;-2.50;99.90
9497;DHT22;4786;51.270;4.456;2022-12-18T10:00:46;-2.30;99.90
9497;DHT22;4786;51.270;4.456;2022-12-18T10:03:14;-2.10;99.90
9497;DHT22;4786;51.270;4.456;2022-12-18T10:06:06;-2.10;99.90
9497;DHT22;4786;51.270;4.456;2022-12-18T10:14:23;-2.00;99.90
9497;DHT22;4786;51.270;4.456;2022-12-18T10:27:40;-1.90;99.90
9497;DHT22;4786;51.270;4.456;2022-12-18T10:30:14;-1.90;99.90
9497;DHT22;4786;51.270;4.456;2022-12-18T10:32:40;-1.80;99.90
9497;DHT22;4786;51.270;4.456;2022-12-18T10:35:26;-1.80;99.90
9497;DHT22;4786;51.270;4.456;2022-12-18T10:43:33;-1.70;99.90
9497;DHT22;4786;51.270;4.456;2022-12-18T10:51:29;-1.50;99.90
9497;DHT22;4786;51.270;4.456;2022-12-18T10:54:12;-1.50;99.90
9497;DHT22;4786;51.270;4.456;2022-12-18T10:56:40;-1.50;99.90
9497;DHT22;4786;51.270;4.456;2022-12-18T10:59:08;-1.40;99.90
9497;DHT22;4786;51.270;4.456;2022-12-18T11:01:55;-1.10;99.90
9497;DHT22;4786;51.270;4.456;2022-12-18T11:04:30;-1.30;99.90
9497;DHT22;4786;51.270;4.456;2022-12-18T11:07:00;-1.30;99.90
9497;DHT22;4786;51.270;4.456;2022-12-18T11:09:39;-1.20;99.90
9497;DHT22;4786;51.270;4.456;2022-12-18T11:12:19;-1.20;99.90
9497;DHT22;4786;51.270;4.456;2022-12-18T11:14:51;-1.20;99.90
9497;DHT22;4786;51.270;4.456;2022-12-18T11:17:34;-1.10;99.90
9497;DHT22;4786;51.270;4.456;2022-12-18T11:20:05;-0.90;99.90
9497;DHT22;4786;51.270;4.456;2022-12-18T11:22:34;-0.90;99.90
9497;DHT22;4786;51.270;4.456;2022-12-18T11:25:05;-0.90;99.90
9497;DHT22;4786;51.270;4.456;2022-12-18T11:27:32;-0.80;99.90
9497;DHT22;4786;51.270;4.456;2022-12-18T11:30:25;-0.70;99.90
9497;DHT22;4786;51.270;4.456;2022-12-18T11:35:58;-0.70;99.90
9497;DHT22;4786;51.270;4.456;2022-12-18T11:38:37;-0.70;99.90
9497;DHT22;4786;51.270;4.456;2022-12-18T11:46:07;-0.80;99.90
9497;DHT22;4786;51.270;4.456;2022-12-18T11:51:14;-0.70;99.90
9497;DHT22;4786;51.270;4.456;2022-12-18T11:53:41;-0.70;99.90
9497;DHT22;4786;51.270;4.456;2022-12-18T11:59:04;-0.60;99.90
9497;DHT22;4786;51.270;4.456;2022-12-18T12:04:48;-0.60;99.90
9497;DHT22;4786;51.270;4.456;2022-12-18T12:13:04;-0.40;99.90
9497;DHT22;4786;51.270;4.456;2022-12-18T12:23:45;-0.30;99.90
9497;DHT22;4786;51.270;4.456;2022-12-18T12:34:42;-0.20;99.90
9497;DHT22;4786;51.270;4.456;2022-12-18T12:39:56;-0.20;99.90
9497;DHT22;4786;51.270;4.456;2022-12-18T12:42:32;-0.20;99.90
9497;DHT22;4786;51.270;4.456;2022-12-18T12:45:47;-0.10;99.90
9497;DHT22;4786;51.270;4.456;2022-12-18T12:48:24;-0.10;99.90
9497;DHT22;4786;51.270;4.456;2022-12-18T12:50:54;0.10;99.90
9497;DHT22;4786;51.270;4.456;2022-12-18T12:53:31;-0.10;99.90
9497;DHT22;4786;51.270;4.456;2022-12-18T12:56:00;0.00;99.90
9497;DHT22;4786;51.270;4.456;2022-12-18T12:58:28;0.00;99.90
9497;DHT22;4786;51.270;4.456;2022-12-18T13:01:13;0.00;99.90
9497;DHT22;4786;51.270;4.456;2022-12-18T13:09:15;0.00;99.90
9497;DHT22;4786;51.270;4.456;2022-12-18T13:11:43;-0.10;99.90
9497;DHT22;4786;51.270;4.456;2022-12-18T13:19:39;0.00;99.90
9497;DHT22;4786;51.270;4.456;2022-12-18T13:22:21;0.30;99.90
9497;DHT22;4786;51.270;4.456;2022-12-18T13:24:47;0.10;99.90
9497;DHT22;4786;51.270;4.456;2022-12-18T13:35:41;-0.10;99.90
9497;DHT22;4786;51.270;4.456;2022-12-18T13:48:16;0.00;99.90
9497;DHT22;4786;51.270;4.456;2022-12-18T13:50:42;0.00;99.90
9497;DHT22;4786;51.270;4.456;2022-12-18T13:53:22;0.00;99.90
9497;DHT22;4786;51.270;4.456;2022-12-18T13:55:50;0.10;99.90
9497;DHT22;4786;51.270;4.456;2022-12-18T13:58:16;0.10;99.90
9497;DHT22;4786;51.270;4.456;2022-12-18T14:00:43;0.10;99.90
9497;DHT22;4786;51.270;4.456;2022-12-18T14:03:25;0.30;99.90
9497;DHT22;4786;51.270;4.456;2022-12-18T14:06:03;0.20;99.90
9497;DHT22;4786;51.270;4.456;2022-12-18T14:08:38;0.40;99.90
9497;DHT22;4786;51.270;4.456;2022-12-18T14:11:06;0.20;99.90
9497;DHT22;4786;51.270;4.456;2022-12-18T14:13:37;0.20;99.90
9497;DHT22;4786;51.270;4.456;2022-12-18T14:16:05;0.20;99.90
9497;DHT22;4786;51.270;4.456;2022-12-18T14:23:45;0.20;99.90
9497;DHT22;4786;51.270;4.456;2022-12-18T14:26:26;0.30;99.90
9497;DHT22;4786;51.270;4.456;2022-12-18T14:28:58;0.30;99.90
9497;DHT22;4786;51.270;4.456;2022-12-18T14:31:28;0.30;99.90
9497;DHT22;4786;51.270;4.456;2022-12-18T14:33:54;0.30;99.90
9497;DHT22;4786;51.270;4.456;2022-12-18T14:36:23;0.30;99.90
9497;DHT22;4786;51.270;4.456;2022-12-18T14:38:52;0.20;99.90
9497;DHT22;4786;51.270;4.456;2022-12-18T14:41:20;0.20;99.90
9497;DHT22;4786;51.270;4.456;2022-12-18T14:43:52;0.20;99.90
9497;DHT22;4786;51.270;4.456;2022-12-18T14:48:53;0.50;99.90
9497;DHT22;4786;51.270;4.456;2022-12-18T14:51:20;0.20;99.90
9497;DHT22;4786;51.270;4.456;2022-12-18T14:53:51;0.40;99.90
9497;DHT22;4786;51.270;4.456;2022-12-18T14:58:52;0.20;99.90
9497;DHT22;4786;51.270;4.456;2022-12-18T15:01:25;0.20;99.90
9497;DHT22;4786;51.270;4.456;2022-12-18T15:03:52;0.20;99.90
9497;DHT22;4786;51.270;4.456;2022-12-18T15:06:26;0.20;99.90
9497;DHT22;4786;51.270;4.456;2022-12-18T15:08:52;0.20;99.90
9497;DHT22;4786;51.270;4.456;2022-12-18T15:13:58;0.30;99.90
9497;DHT22;4786;51.270;4.456;2022-12-18T15:16:26;0.30;99.90
9497;DHT22;4786;51.270;4.456;2022-12-18T15:18:52;0.30;99.90
9497;DHT22;4786;51.270;4.456;2022-12-18T15:21:19;0.30;99.90
9497;DHT22;4786;51.270;4.456;2022-12-18T15:23:50;0.20;99.90
9497;DHT22;4786;51.270;4.456;2022-12-18T15:26:19;0.20;99.90
9497;DHT22;4786;51.270;4.456;2022-12-18T15:28:53;0.30;99.90
9497;DHT22;4786;51.270;4.456;2022-12-18T15:31:30;0.30;99.90
9497;DHT22;4786;51.270;4.456;2022-12-18T15:36:24;0.30;99.90
9497;DHT22;4786;51.270;4.456;2022-12-18T15:38:51;0.40;99.90
9497;DHT22;4786;51.270;4.456;2022-12-18T15:41:19;0.40;99.90
9497;DHT22;4786;51.270;4.456;2022-12-18T15:43:47;0.30;99.90
9497;DHT22;4786;51.270;4.456;2022-12-18T15:46:19;0.50;99.90
9497;DHT22;4786;51.270;4.456;2022-12-18T15:48:47;0.60;99.90
9497;DHT22;4786;51.270;4.456;2022-12-18T15:51:19;0.40;99.90
9497;DHT22;4786;51.270;4.456;2022-12-18T15:53:46;0.30;99.90
9497;DHT22;4786;51.270;4.456;2022-12-18T15:56:14;0.30;99.90
9497;DHT22;4786;51.270;4.456;2022-12-18T15:59:00;0.40;99.90
9497;DHT22;4786;51.270;4.456;2022-12-18T16:01:29;0.40;99.90
9497;DHT22;4786;51.270;4.456;2022-12-18T16:03:55;0.40;99.90
9497;DHT22;4786;51.270;4.456;2022-12-18T16:06:21;0.60;99.90
9497;DHT22;4786;51.270;4.456;2022-12-18T16:08:48;0.50;99.90
9497;DHT22;4786;51.270;4.456;2022-12-18T16:16:32;0.50;99.90
9497;DHT22;4786;51.270;4.456;2022-12-18T16:18:58;0.60;99.90
9497;DHT22;4786;51.270;4.456;2022-12-18T16:21:24;0.50;99.90
9497;DHT22;4786;51.270;4.456;2022-12-18T16:23:49;0.60;99.90
9497;DHT22;4786;51.270;4.456;2022-12-18T16:26:16;0.60;99.90
9497;DHT22;4786;51.270;4.456;2022-12-18T16:28:41;0.60;99.90
9497;DHT22;4786;51.270;4.456;2022-12-18T16:31:10;0.50;99.90
9497;DHT22;4786;51.270;4.456;2022-12-18T16:33:36;0.50;99.90
9497;DHT22;4786;51.270;4.456;2022-12-18T16:36:02;0.90;99.90
9497;DHT22;4786;51.270;4.456;2022-12-18T16:38:28;0.60;99.90
9497;DHT22;4786;51.270;4.456;2022-12-18T16:40:54;0.70;99.90
9497;DHT22;4786;51.270;4.456;2022-12-18T16:43:38;0.60;99.90
9497;DHT22;4786;51.270;4.456;2022-12-18T16:46:04;0.50;99.90
9497;DHT22;4786;51.270;4.456;2022-12-18T16:48:30;0.60;99.90
9497;DHT22;4786;51.270;4.456;2022-12-18T16:51:04;0.60;99.90
9497;DHT22;4786;51.270;4.456;2022-12-18T16:53:32;0.70;99.90
9497;DHT22;4786;51.270;4.456;2022-12-18T16:55:58;0.80;99.90
9497;DHT22;4786;51.270;4.456;2022-12-18T16:58:24;0.70;99.90
9497;DHT22;4786;51.270;4.456;2022-12-18T17:00:50;0.70;99.90
9497;DHT22;4786;51.270;4.456;2022-12-18T17:03:16;0.80;99.90
9497;DHT22;4786;51.270;4.456;2022-12-18T17:05:41;0.70;99.90
9497;DHT22;4786;51.270;4.456;2022-12-18T17:08:07;0.70;99.90
9497;DHT22;4786;51.270;4.456;2022-12-18T17:10:36;0.70;99.90
9497;DHT22;4786;51.270;4.456;2022-12-18T17:13:02;0.70;99.90
9497;DHT22;4786;51.270;4.456;2022-12-18T17:15:27;0.70;99.90
9497;DHT22;4786;51.270;4.456;2022-12-18T17:17:54;0.80;99.90
9497;DHT22;4786;51.270;4.456;2022-12-18T17:20:21;0.80;99.90
9497;DHT22;4786;51.270;4.456;2022-12-18T17:22:47;0.80;99.90
9497;DHT22;4786;51.270;4.456;2022-12-18T17:25:13;0.80;99.90
9497;DHT22;4786;51.270;4.456;2022-12-18T17:27:39;0.80;99.90
9497;DHT22;4786;51.270;4.456;2022-12-18T17:30:05;0.80;99.90
9497;DHT22;4786;51.270;4.456;2022-12-18T17:32:32;0.80;99.90
9497;DHT22;4786;51.270;4.456;2022-12-18T17:34:57;0.80;99.90
9497;DHT22;4786;51.270;4.456;2022-12-18T17:37:23;0.80;99.90
9497;DHT22;4786;51.270;4.456;2022-12-18T17:39:49;0.90;99.90
9497;DHT22;4786;51.270;4.456;2022-12-18T17:42:15;0.90;99.90
9497;DHT22;4786;51.270;4.456;2022-12-18T17:44:41;0.90;99.90
9497;DHT22;4786;51.270;4.456;2022-12-18T17:47:07;0.90;99.90
9497;DHT22;4786;51.270;4.456;2022-12-18T17:49:36;0.90;99.90
9497;DHT22;4786;51.270;4.456;2022-12-18T17:52:02;1.10;99.90
9497;DHT22;4786;51.270;4.456;2022-12-18T17:54:27;1.20;99.90
9497;DHT22;4786;51.270;4.456;2022-12-18T17:56:53;0.90;99.90
9497;DHT22;4786;51.270;4.456;2022-12-18T17:59:19;0.90;99.90
9497;DHT22;4786;51.270;4.456;2022-12-18T18:01:45;1.00;99.90
9497;DHT22;4786;51.270;4.456;2022-12-18T18:04:11;1.00;99.90
9497;DHT22;4786;51.270;4.456;2022-12-18T18:06:37;1.00;99.90
9497;DHT22;4786;51.270;4.456;2022-12-18T18:09:03;0.90;99.90
9497;DHT22;4786;51.270;4.456;2022-12-18T18:11:29;1.10;99.90
9497;DHT22;4786;51.270;4.456;2022-12-18T18:14:18;1.00;99.90
9497;DHT22;4786;51.270;4.456;2022-12-18T18:16:49;1.00;99.90
9497;DHT22;4786;51.270;4.456;2022-12-18T18:19:20;1.00;99.90
9497;DHT22;4786;51.270;4.456;2022-12-18T18:21:48;1.00;99.90
9497;DHT22;4786;51.270;4.456;2022-12-18T18:24:16;1.00;99.90
9497;DHT22;4786;51.270;4.456;2022-12-18T18:26:44;1.10;99.90
9497;DHT22;4786;51.270;4.456;2022-12-18T18:29:19;1.10;99.90
9497;DHT22;4786;51.270;4.456;2022-12-18T18:31:46;1.10;99.90
9497;DHT22;4786;51.270;4.456;2022-12-18T18:34:16;1.10;99.90
9497;DHT22;4786;51.270;4.456;2022-12-18T18:36:43;1.10;99.90
9497;DHT22;4786;51.270;4.456;2022-12-18T18:39:10;1.10;99.90
9497;DHT22;4786;51.270;4.456;2022-12-18T18:41:36;1.10;99.90
9497;DHT22;4786;51.270;4.456;2022-12-18T18:44:02;1.10;99.90
9497;DHT22;4786;51.270;4.456;2022-12-18T18:46:28;1.10;99.90